Hundred, West Virginia
Current Conditions -  °F | °C
As of 10:53 PM on Wednesday 22 Oct 2014 (Local Time) from KCKB Reporting Station
Overcast Overcast  
Wind Chill: 45°   Ceiling: 1900
Heat Index: 47°   Visibility: 10mi
Dew Point: 42°   Wind: 5mph
Humidity: 83%   Direction: 330°NNW
Pressure: 30.18"   Gusts: NA
Location:  39.68°N, 80.46°W
Report Text: KCKB 230253Z 33004KT 10SM OVC019 08/06 A3018 RMK AO2 SLP218 T00830056 50004
Loading
Personal Weather Stations






























Interactive Weather Map
Tropical Storm Tracking
New forecast layout! Learn more

10-Day Weather Forecast

Advertisements
Track Severe Weather on mobile